createdAt,value
2022-07-30T09:53:54.365Z,53.66
2022-07-30T09:56:25.412Z,53.54
2022-07-30T09:58:52.364Z,54.13
2022-07-30T10:01:19.096Z,53.09
2022-07-30T10:03:46.619Z,51.01
2022-07-30T10:06:14.767Z,50.59
2022-07-30T10:08:45.975Z,50.63
2022-07-30T10:11:15.396Z,51.02
2022-07-30T10:13:45.656Z,51.23
2022-07-30T10:16:12.430Z,51.74
2022-07-30T10:18:41.817Z,49.16
2022-07-30T10:21:08.995Z,47.14
2022-07-30T10:23:36.328Z,49.83
2022-07-30T10:26:12.978Z,49.06
2022-07-30T10:28:44.526Z,48.82
2022-07-30T10:31:47.269Z,46.06
2022-07-30T10:33:58.622Z,46.85
2022-07-30T10:36:26.175Z,49.84
2022-07-30T10:38:54.661Z,45.75
2022-07-30T10:41:44.113Z,44.00
2022-07-30T10:44:44.235Z,44.79
2022-07-30T10:47:14.232Z,43.09
2022-07-30T10:50:06.029Z,45.29
2022-07-30T10:52:47.148Z,45.15
2022-07-30T10:55:15.854Z,47.23
2022-07-30T10:58:03.089Z,48.29
2022-07-30T11:00:33.808Z,48.38
2022-07-30T11:03:18.739Z,48.11
2022-07-30T11:05:47.699Z,49.82
2022-07-30T11:08:37.837Z,48.10
2022-07-30T11:12:02.350Z,49.18
2022-07-30T11:14:57.685Z,47.50
2022-07-30T11:17:24.321Z,44.31
2022-07-30T11:20:11.929Z,47.83
2022-07-30T11:22:40.172Z,43.81
2022-07-30T11:25:13.171Z,43.84
2022-07-30T11:27:41.785Z,42.83
2022-07-30T11:30:34.474Z,42.35
2022-07-30T11:33:22.235Z,45.98
2022-07-30T11:36:11.717Z,47.69
2022-07-30T11:38:52.662Z,47.46
2022-07-30T11:41:19.234Z,49.80
2022-07-30T11:43:45.804Z,46.69
2022-07-30T11:46:16.355Z,49.24
2022-07-30T11:48:55.365Z,50.51
2022-07-30T11:51:22.062Z,49.29
2022-07-30T11:54:00.586Z,52.98
2022-07-30T11:56:27.189Z,49.82
2022-07-30T11:59:04.989Z,51.01
2022-07-30T12:01:33.698Z,50.36
2022-07-30T12:04:03.522Z,51.48
2022-07-30T12:06:30.222Z,51.54
2022-07-30T12:08:58.869Z,54.67
2022-07-30T12:11:25.999Z,52.62
2022-07-30T12:13:56.524Z,50.17
2022-07-30T12:16:23.118Z,50.47
2022-07-30T12:18:51.216Z,49.81
2022-07-30T12:21:18.579Z,48.63
2022-07-30T12:23:54.504Z,49.63
2022-07-30T12:26:22.274Z,49.71
2022-07-30T12:28:49.382Z,48.34
2022-07-30T12:31:16.665Z,48.50
2022-07-30T12:33:43.400Z,48.29
2022-07-30T12:36:24.320Z,52.93
2022-07-30T12:38:50.881Z,50.22
2022-07-30T12:41:17.419Z,51.59
2022-07-30T12:43:46.765Z,51.36
2022-07-30T12:46:15.624Z,52.62
2022-07-30T12:48:53.718Z,50.62
2022-07-30T12:51:23.670Z,52.58
2022-07-30T12:53:50.844Z,52.45
2022-07-30T12:56:19.760Z,51.52
2022-07-30T12:58:46.578Z,52.35
2022-07-30T13:01:16.035Z,53.50
2022-07-30T13:03:42.970Z,54.07
2022-07-30T13:06:17.740Z,49.79
2022-07-30T13:08:48.128Z,53.20
2022-07-30T13:11:15.547Z,49.96
2022-07-30T13:13:42.231Z,49.54
2022-07-30T13:16:08.966Z,51.01
2022-07-30T13:18:36.299Z,50.60
2022-07-30T13:21:04.421Z,46.58
2022-07-30T13:23:31.037Z,42.23
2022-07-30T13:25:59.302Z,40.98
2022-07-30T13:28:26.524Z,40.15
2022-07-30T13:30:53.167Z,38.00
2022-07-30T13:33:19.929Z,36.45
2022-07-30T13:35:46.517Z,37.73
2022-07-30T13:38:13.073Z,43.71
2022-07-30T13:40:39.936Z,43.16
2022-07-30T13:43:08.041Z,45.05
2022-07-30T13:45:35.626Z,43.46
2022-07-30T13:48:02.824Z,43.63
2022-07-30T13:50:29.895Z,43.33
2022-07-30T13:53:15.541Z,44.15
2022-07-30T13:55:42.790Z,42.89
2022-07-30T13:58:10.811Z,42.07
2022-07-30T14:00:37.479Z,43.17
2022-07-30T14:03:17.190Z,43.99
2022-07-30T14:05:43.932Z,39.45
2022-07-30T14:08:11.762Z,44.79
2022-07-30T14:10:39.125Z,42.81
2022-07-30T14:13:07.615Z,45.30
2022-07-30T14:15:35.674Z,42.94
2022-07-30T14:18:02.562Z,44.65
2022-07-30T14:20:29.608Z,42.96
2022-07-30T14:22:56.254Z,43.84
2022-07-30T14:25:22.888Z,43.25
2022-07-30T14:27:49.415Z,43.59
2022-07-30T14:30:16.015Z,40.78
2022-07-30T14:32:45.004Z,38.78
2022-07-30T14:35:11.995Z,41.22
2022-07-30T14:37:39.707Z,41.28
2022-07-30T14:40:09.311Z,39.15
2022-07-30T14:42:35.856Z,37.53
2022-07-30T14:45:02.618Z,40.95
2022-07-30T14:47:29.156Z,40.90
2022-07-30T14:49:57.075Z,42.60
2022-07-30T14:52:23.650Z,39.86
2022-07-30T14:54:50.163Z,43.13
2022-07-30T14:57:16.696Z,44.40
2022-07-30T14:59:43.287Z,43.34
2022-07-30T15:02:10.695Z,46.14
2022-07-30T15:04:37.622Z,43.54
2022-07-30T15:07:05.540Z,45.54
2022-07-30T15:09:33.546Z,45.30
2022-07-30T15:12:08.640Z,46.16
2022-07-30T15:14:36.494Z,46.04
2022-07-30T15:17:04.495Z,46.32
2022-07-30T15:19:31.839Z,46.29
2022-07-30T15:21:58.983Z,42.68
2022-07-30T15:24:27.080Z,46.11
2022-07-30T15:26:53.664Z,46.40
2022-07-30T15:29:20.202Z,45.79
2022-07-30T15:31:46.766Z,43.97
2022-07-30T15:34:13.339Z,45.59
2022-07-30T15:36:39.938Z,48.83
2022-07-30T15:39:06.610Z,47.86
2022-07-30T15:41:34.565Z,49.47
2022-07-30T15:44:01.128Z,47.82
2022-07-30T15:46:27.796Z,49.86
2022-07-30T15:48:54.407Z,49.79
2022-07-30T15:51:21.190Z,51.70
2022-07-30T15:53:47.761Z,49.36
2022-07-30T15:56:14.396Z,49.47
2022-07-30T15:58:43.644Z,49.42
2022-07-30T16:01:10.508Z,50.93
2022-07-30T16:03:37.171Z,50.10
2022-07-30T16:06:03.871Z,52.20
2022-07-30T16:08:30.423Z,52.96
2022-07-30T16:10:57.975Z,53.07
2022-07-30T16:13:24.515Z,52.03
2022-07-30T16:15:52.421Z,53.29
2022-07-30T16:18:18.938Z,51.97
2022-07-30T16:20:45.604Z,52.09
2022-07-30T16:23:15.008Z,51.68
2022-07-30T16:25:44.774Z,53.05
2022-07-30T16:28:11.332Z,53.45
2022-07-30T16:30:50.397Z,53.02
2022-07-30T16:33:20.224Z,54.22
2022-07-30T16:35:49.140Z,53.03
2022-07-30T16:38:18.050Z,53.48
2022-07-30T16:40:44.799Z,53.14
2022-07-30T16:43:11.486Z,53.41
2022-07-30T16:45:38.019Z,52.65
2022-07-30T16:48:05.388Z,51.08
2022-07-30T16:50:33.306Z,50.14
2022-07-30T16:52:59.892Z,48.63
2022-07-30T16:55:26.479Z,49.89
2022-07-30T16:57:53.034Z,49.71
2022-07-30T17:00:19.596Z,52.43
2022-07-30T17:02:46.145Z,53.11
2022-07-30T17:05:13.986Z,51.84
2022-07-30T17:07:41.971Z,52.76
2022-07-30T17:10:11.061Z,54.83
2022-07-30T17:12:37.852Z,54.14
2022-07-30T17:15:05.348Z,54.94
2022-07-30T17:17:31.939Z,55.14
2022-07-30T17:19:58.566Z,55.20
2022-07-30T17:22:25.260Z,54.90
2022-07-30T17:24:53.162Z,55.65
2022-07-30T17:27:21.560Z,56.73
2022-07-30T17:29:50.560Z,55.72
2022-07-30T17:32:17.798Z,57.63
2022-07-30T17:34:44.351Z,58.31
2022-07-30T17:37:10.902Z,57.88
2022-07-30T17:40:27.387Z,57.99
2022-07-30T17:42:25.375Z,57.45
2022-07-30T17:44:52.062Z,57.86
2022-07-30T17:47:18.667Z,57.05
2022-07-30T17:49:46.325Z,57.40
2022-07-30T17:52:13.030Z,56.98
2022-07-30T17:54:39.958Z,55.68
2022-07-30T17:57:06.544Z,57.55
2022-07-30T17:59:34.471Z,55.68
2022-07-30T18:02:01.397Z,57.13
2022-07-30T18:04:28.118Z,57.48
2022-07-30T18:06:54.679Z,57.65
2022-07-30T18:09:21.266Z,57.94
2022-07-30T18:11:47.848Z,57.23
2022-07-30T18:14:14.466Z,59.17
2022-07-30T18:16:42.441Z,57.17
2022-07-30T18:19:08.995Z,56.94
2022-07-30T18:21:49.557Z,59.09
2022-07-30T18:24:16.140Z,60.84
2022-07-30T18:26:42.876Z,60.66
2022-07-30T18:29:13.760Z,62.81
2022-07-30T18:31:41.992Z,62.25
2022-07-30T18:34:08.564Z,61.94
2022-07-30T18:36:35.135Z,61.87
2022-07-30T18:39:01.671Z,64.05
2022-07-30T18:41:28.303Z,65.11
2022-07-30T18:43:54.843Z,63.24
2022-07-30T18:46:21.406Z,65.63
2022-07-30T18:48:49.338Z,64.22
2022-07-30T18:51:16.335Z,65.86
2022-07-30T18:53:42.919Z,68.30
2022-07-30T18:56:09.512Z,66.26
2022-07-30T18:58:36.105Z,66.82
2022-07-30T19:01:02.851Z,67.50
2022-07-30T19:03:29.443Z,68.11
2022-07-30T19:05:57.367Z,68.68
2022-07-30T19:08:23.890Z,69.12
2022-07-30T19:10:50.462Z,70.22
2022-07-30T19:13:17.078Z,70.57
2022-07-30T19:15:43.623Z,71.49
2022-07-30T19:18:10.155Z,72.71
2022-07-30T19:20:36.740Z,73.35
2022-07-30T19:23:06.820Z,74.38
2022-07-30T19:25:34.655Z,75.03
2022-07-30T19:28:01.790Z,74.87
2022-07-30T19:30:29.153Z,74.76
2022-07-30T19:33:01.750Z,76.00
2022-07-30T19:35:28.313Z,76.89
2022-07-30T19:37:54.859Z,76.38
2022-07-30T19:40:22.841Z,77.05
2022-07-30T19:42:55.936Z,78.18
2022-07-30T19:45:23.282Z,78.80
2022-07-30T19:47:49.993Z,79.70
2022-07-30T19:50:16.598Z,79.58
2022-07-30T19:52:51.603Z,80.10
2022-07-30T19:55:35.437Z,80.24
2022-07-30T19:58:04.367Z,81.00
2022-07-30T20:00:31.119Z,80.01
2022-07-30T20:03:02.383Z,81.49
2022-07-30T20:05:30.546Z,81.59
2022-07-30T20:07:57.143Z,82.13
2022-07-30T20:10:23.836Z,82.55
2022-07-30T20:12:50.395Z,82.59
2022-07-30T20:15:18.301Z,82.99
2022-07-30T20:17:46.439Z,83.75
2022-07-30T20:20:13.600Z,84.19
2022-07-30T20:22:40.533Z,84.16
2022-07-30T20:25:08.929Z,84.15
2022-07-30T20:27:38.417Z,83.67
2022-07-30T20:30:07.534Z,83.50
2022-07-30T20:32:35.915Z,83.95
2022-07-30T20:35:02.965Z,84.68
2022-07-30T20:37:29.841Z,85.49
2022-07-30T20:39:56.720Z,85.07
2022-07-30T20:42:23.773Z,85.70
2022-07-30T20:44:50.984Z,85.47
2022-07-30T20:47:17.755Z,86.08
2022-07-30T20:50:03.229Z,86.48
2022-07-30T20:52:30.123Z,86.76
2022-07-30T20:54:56.742Z,87.49
2022-07-30T20:57:44.451Z,87.35
2022-07-30T21:00:12.848Z,87.21
2022-07-30T21:02:39.400Z,87.85
2022-07-30T21:05:08.206Z,87.72
2022-07-30T21:07:40.455Z,88.54
2022-07-30T21:10:11.492Z,88.75
2022-07-30T21:12:38.927Z,89.01
2022-07-30T21:15:11.845Z,89.43
2022-07-30T21:17:50.794Z,87.52
2022-07-30T21:20:26.619Z,88.17
2022-07-30T21:22:55.116Z,88.41
2022-07-30T21:25:23.553Z,88.35
2022-07-30T21:28:08.578Z,88.95
2022-07-30T21:30:45.084Z,89.51
2022-07-30T21:33:11.966Z,88.98
2022-07-30T21:35:40.110Z,88.73
2022-07-30T21:38:07.895Z,87.44
2022-07-30T21:40:35.455Z,88.24
2022-07-30T21:43:03.772Z,89.25
2022-07-30T21:45:38.753Z,89.57
2022-07-30T21:48:06.539Z,89.80
2022-07-30T21:50:33.761Z,89.55
2022-07-30T21:53:01.681Z,89.31
2022-07-30T21:55:33.565Z,88.96
2022-07-30T21:58:24.058Z,89.34
2022-07-30T22:01:01.539Z,89.02
2022-07-30T22:04:03.857Z,89.86
2022-07-30T22:06:29.599Z,91.08
2022-07-30T22:08:57.889Z,90.25
2022-07-30T22:11:24.609Z,90.54
2022-07-30T22:14:09.484Z,90.78
2022-07-30T22:16:36.226Z,91.23
2022-07-30T22:19:03.593Z,90.48
2022-07-30T22:21:30.509Z,90.85
2022-07-30T22:23:59.840Z,90.67
2022-07-30T22:26:26.816Z,90.14
2022-07-30T22:28:54.308Z,90.59
2022-07-30T22:31:21.397Z,90.15
2022-07-30T22:36:35.115Z,89.99
2022-07-30T22:39:03.102Z,90.44
2022-07-30T22:41:35.526Z,90.67
2022-07-30T22:44:02.059Z,91.39
2022-07-30T22:46:30.754Z,91.68
2022-07-30T22:48:57.878Z,91.97
2022-07-30T22:51:26.255Z,91.73
2022-07-30T22:54:14.212Z,91.38
2022-07-30T22:56:41.502Z,91.56
2022-07-30T22:59:08.223Z,91.87
2022-07-30T23:01:34.768Z,92.45
2022-07-30T23:04:01.701Z,91.82
2022-07-30T23:09:16.422Z,93.37
2022-07-30T23:11:42.985Z,93.77
2022-07-30T23:12:30.937Z,92.58
2022-07-30T23:12:31.607Z,90.73
2022-07-30T23:14:10.875Z,93.18
2022-07-30T23:16:38.254Z,93.02
2022-07-30T23:19:05.740Z,93.77
2022-07-30T23:21:32.509Z,92.96
2022-07-30T23:23:59.220Z,92.70
2022-07-30T23:26:27.120Z,93.45
2022-07-30T23:28:53.676Z,93.13
2022-07-30T23:31:22.962Z,92.92
2022-07-30T23:33:53.046Z,92.66
2022-07-30T23:36:19.578Z,93.16
2022-07-30T23:38:46.279Z,92.98
2022-07-30T23:41:12.930Z,93.22
2022-07-30T23:43:40.832Z,93.15
2022-07-30T23:46:10.966Z,92.15
2022-07-30T23:48:37.820Z,92.27
2022-07-30T23:51:04.352Z,93.68
2022-07-30T23:53:30.884Z,93.46
2022-07-30T23:55:57.451Z,93.88
2022-07-30T23:58:23.991Z,93.80
